createdAt,value
2018-03-15T00:01:59.090Z,2.20
2018-03-15T00:04:25.592Z,2.20
2018-03-15T00:06:52.400Z,2.20
2018-03-15T00:09:18.833Z,2.20
2018-03-15T00:11:45.201Z,2.20
2018-03-15T00:14:11.642Z,2.30
2018-03-15T00:16:38.050Z,2.20
2018-03-15T00:19:04.839Z,3.10
2018-03-15T00:21:31.179Z,2.30
2018-03-15T00:23:58.302Z,2.30
2018-03-15T00:26:25.070Z,2.30
2018-03-15T00:28:52.682Z,2.30
2018-03-15T00:31:19.120Z,2.10
2018-03-15T00:33:45.676Z,2.00
2018-03-15T00:36:12.416Z,2.20
2018-03-15T00:38:39.559Z,2.20
2018-03-15T00:41:06.037Z,2.20
2018-03-15T00:43:32.444Z,2.30
2018-03-15T00:45:58.780Z,2.30
2018-03-15T00:48:25.086Z,2.40
2018-03-15T00:50:51.400Z,2.20
2018-03-15T00:55:45.824Z,2.60
2018-03-15T00:58:12.912Z,2.30
2018-03-15T01:00:39.345Z,2.30
2018-03-15T01:03:06.823Z,2.30
2018-03-15T01:05:33.219Z,2.30
2018-03-15T01:07:59.719Z,2.30
2018-03-15T01:10:26.166Z,2.30
2018-03-15T01:12:53.334Z,2.20
2018-03-15T01:15:19.720Z,2.20
2018-03-15T01:17:46.912Z,2.20
2018-03-15T01:20:13.634Z,2.10
2018-03-15T01:22:40.023Z,2.40
2018-03-15T01:25:06.729Z,2.30
2018-03-15T01:27:33.712Z,2.20
2018-03-15T01:30:00.336Z,2.20
2018-03-15T01:32:26.960Z,2.20
2018-03-15T01:37:21.729Z,1.80
2018-03-15T01:39:49.536Z,2.10
2018-03-15T01:44:44.350Z,2.20
2018-03-15T01:47:10.857Z,2.00
2018-03-15T01:49:37.893Z,2.00
2018-03-15T01:52:06.339Z,1.90
2018-03-15T01:54:32.836Z,2.00
2018-03-15T01:57:00.067Z,2.10
2018-03-15T02:01:54.876Z,2.00
2018-03-15T02:04:21.270Z,2.00
2018-03-15T02:06:49.315Z,1.80
2018-03-15T02:09:16.273Z,2.10
2018-03-15T02:11:43.098Z,2.20
2018-03-15T02:14:10.234Z,2.10
2018-03-15T02:16:37.429Z,2.10
2018-03-15T02:19:03.759Z,2.00
2018-03-15T02:21:31.369Z,1.90
2018-03-15T02:23:57.921Z,1.90
2018-03-15T02:26:24.302Z,1.90
2018-03-15T02:28:50.681Z,1.80
2018-03-15T02:31:18.049Z,1.90
2018-03-15T02:33:45.854Z,1.80
2018-03-15T02:36:13.229Z,1.80
2018-03-15T02:38:39.608Z,1.60
2018-03-15T02:41:06.004Z,1.80
2018-03-15T02:43:33.889Z,1.70
2018-03-15T02:46:00.672Z,1.80
2018-03-15T02:48:27.139Z,1.80
2018-03-15T02:50:53.864Z,1.70
2018-03-15T02:53:20.302Z,1.70
2018-03-15T02:55:46.671Z,1.70
2018-03-15T02:58:14.045Z,1.70
2018-03-15T03:00:41.158Z,1.70
2018-03-15T03:03:07.641Z,1.60
2018-03-15T03:05:33.954Z,1.70
2018-03-15T03:08:00.292Z,1.70
2018-03-15T03:10:26.619Z,1.80
2018-03-15T03:12:53.011Z,1.70
2018-03-15T03:15:19.440Z,1.80
2018-03-15T03:17:46.144Z,1.70
2018-03-15T03:20:12.660Z,2.20
2018-03-15T03:22:39.144Z,1.80
2018-03-15T03:25:05.571Z,1.70
2018-03-15T03:27:31.928Z,1.70
2018-03-15T03:29:58.284Z,1.80
2018-03-15T03:32:25.850Z,1.70
2018-03-15T03:34:52.222Z,1.70
2018-03-15T03:37:18.569Z,1.70
2018-03-15T03:39:44.989Z,1.70
2018-03-15T03:42:11.713Z,1.80
2018-03-15T03:44:38.146Z,1.80
2018-03-15T03:47:04.517Z,1.70
2018-03-15T03:49:30.949Z,1.70
2018-03-15T03:51:58.110Z,1.70
2018-03-15T03:54:24.443Z,1.50
2018-03-15T03:56:50.818Z,1.60
2018-03-15T03:59:17.165Z,1.60
2018-03-15T04:01:43.599Z,1.70
2018-03-15T04:04:10.516Z,1.70
2018-03-15T04:06:37.736Z,1.60
2018-03-15T04:09:04.148Z,1.60
2018-03-15T04:11:30.525Z,1.60
2018-03-15T04:13:57.689Z,1.50
2018-03-15T04:16:24.792Z,1.50
2018-03-15T04:18:51.272Z,1.50
2018-03-15T04:21:17.659Z,1.50
2018-03-15T04:23:44.035Z,1.40
2018-03-15T04:26:10.628Z,1.40
2018-03-15T04:28:37.108Z,1.50
2018-03-15T04:31:03.489Z,1.50
2018-03-15T04:33:29.890Z,1.50
2018-03-15T04:35:57.000Z,1.60
2018-03-15T04:38:23.301Z,1.60
2018-03-15T04:40:50.430Z,1.60
2018-03-15T04:43:16.830Z,1.90
2018-03-15T04:45:50.895Z,1.50
2018-03-15T04:48:24.132Z,1.60
2018-03-15T04:50:50.521Z,1.60
2018-03-15T04:53:16.861Z,1.90
2018-03-15T04:55:43.259Z,1.60
2018-03-15T04:58:09.630Z,1.50
2018-03-15T05:00:36.066Z,1.50
2018-03-15T05:03:02.417Z,1.20
2018-03-15T05:05:29.486Z,1.40
2018-03-15T05:07:56.644Z,1.50
2018-03-15T05:10:23.796Z,1.50
2018-03-15T05:12:50.206Z,1.40
2018-03-15T05:15:17.311Z,1.40
2018-03-15T05:17:44.008Z,1.50
2018-03-15T05:20:10.962Z,1.40
2018-03-15T05:22:37.318Z,1.40
2018-03-15T05:25:03.689Z,1.30
2018-03-15T05:27:30.043Z,1.30
2018-03-15T05:32:24.543Z,1.30
2018-03-15T05:34:51.358Z,1.40
2018-03-15T05:37:18.921Z,1.30
2018-03-15T05:39:45.286Z,1.40
2018-03-15T05:42:12.041Z,1.40
2018-03-15T05:44:38.447Z,1.40
2018-03-15T05:47:04.769Z,1.40
2018-03-15T05:54:27.701Z,1.50
2018-03-15T05:56:54.067Z,1.30
2018-03-15T06:01:48.533Z,1.40
2018-03-15T06:04:15.664Z,1.50
2018-03-15T06:06:43.175Z,1.40
2018-03-15T06:09:09.744Z,1.50
2018-03-15T06:11:36.116Z,1.50
2018-03-15T06:14:02.493Z,1.50
2018-03-15T06:16:30.033Z,1.60
2018-03-15T06:18:56.451Z,1.60
2018-03-15T06:21:24.413Z,1.40
2018-03-15T06:23:51.096Z,1.50
2018-03-15T06:26:18.588Z,1.70
2018-03-15T06:28:45.193Z,1.70
2018-03-15T06:31:11.932Z,2.00
2018-03-15T06:33:39.652Z,1.80
2018-03-15T06:36:16.973Z,1.80
2018-03-15T06:48:36.294Z,2.00
2018-03-15T06:51:02.697Z,2.00
2018-03-15T06:58:25.370Z,2.00
2018-03-15T07:00:52.852Z,1.90
2018-03-15T07:03:19.163Z,2.00
2018-03-15T07:08:14.081Z,2.00
2018-03-15T07:10:41.220Z,2.00
2018-03-15T07:13:07.607Z,2.00
2018-03-15T07:15:34.086Z,1.70
2018-03-15T07:18:00.807Z,1.90
2018-03-15T07:25:23.362Z,1.90
2018-03-15T07:27:49.764Z,1.90
2018-03-15T07:30:16.198Z,1.70
2018-03-15T07:32:43.392Z,1.90
2018-03-15T07:37:37.908Z,2.10
2018-03-15T07:40:05.348Z,2.00
2018-03-15T07:42:32.015Z,2.00
2018-03-15T07:44:58.756Z,2.10
2018-03-15T07:47:25.080Z,2.10
2018-03-15T07:49:51.368Z,2.10
2018-03-15T07:52:18.524Z,2.20
2018-03-15T07:57:12.931Z,2.40
2018-03-15T07:59:39.243Z,2.40
2018-03-15T08:02:06.646Z,2.50
2018-03-15T08:04:32.964Z,2.50
2018-03-15T08:09:27.505Z,2.50
2018-03-15T08:11:54.006Z,2.50
2018-03-15T08:14:20.299Z,2.50
2018-03-15T08:16:47.000Z,2.60
2018-03-15T08:19:14.461Z,2.60
2018-03-15T08:21:40.826Z,2.70
2018-03-15T08:34:00.026Z,3.20
2018-03-15T08:36:26.825Z,3.30
2018-03-15T08:41:21.309Z,3.10
2018-03-15T08:46:16.901Z,3.10
2018-03-15T08:51:12.820Z,3.20
2018-03-15T08:53:40.744Z,2.90
2018-03-15T09:06:00.253Z,3.60
2018-03-15T09:10:55.313Z,3.80
2018-03-15T09:13:21.698Z,4.00
2018-03-15T09:15:48.765Z,4.20
2018-03-15T09:18:15.162Z,4.30
2018-03-15T09:20:43.165Z,4.00
2018-03-15T09:23:12.704Z,3.90
2018-03-15T09:25:40.512Z,4.30
2018-03-15T09:28:07.658Z,4.50
2018-03-15T09:30:34.723Z,4.60
2018-03-15T09:33:01.865Z,4.70
2018-03-15T09:35:28.309Z,4.90
2018-03-15T09:37:54.678Z,5.30
2018-03-15T09:40:21.802Z,5.60
2018-03-15T09:42:48.204Z,5.80
2018-03-15T09:45:14.581Z,5.90
2018-03-15T09:47:40.979Z,5.70
2018-03-15T09:50:07.349Z,5.30
2018-03-15T09:52:34.576Z,5.10
2018-03-15T09:55:02.089Z,5.20
2018-03-15T09:57:28.830Z,5.50
2018-03-15T09:59:55.582Z,5.40
2018-03-15T10:02:22.831Z,5.50
2018-03-15T10:04:49.203Z,5.60
2018-03-15T10:07:15.618Z,5.60
2018-03-15T10:09:42.026Z,5.20
2018-03-15T10:12:08.380Z,5.20
2018-03-15T10:14:35.135Z,5.10
2018-03-15T10:17:02.960Z,5.10
2018-03-15T10:19:29.339Z,5.00
2018-03-15T10:21:55.766Z,4.80
2018-03-15T10:26:50.670Z,4.70
2018-03-15T10:29:17.075Z,4.70
2018-03-15T10:31:44.233Z,4.70
2018-03-15T10:34:11.061Z,4.80
2018-03-15T10:36:37.467Z,4.80
2018-03-15T10:39:03.938Z,5.00
2018-03-15T10:41:30.825Z,5.10
2018-03-15T10:43:57.315Z,5.20
2018-03-15T10:46:23.879Z,5.00
2018-03-15T10:48:51.252Z,4.90
2018-03-15T10:51:17.612Z,4.90
2018-03-15T10:53:43.958Z,5.10
2018-03-15T10:56:10.397Z,5.00
2018-03-15T10:58:36.758Z,5.00
2018-03-15T11:01:05.515Z,4.90
2018-03-15T11:03:38.716Z,5.00
2018-03-15T11:06:09.607Z,5.20
2018-03-15T11:08:36.128Z,5.10
2018-03-15T11:11:02.966Z,5.10
2018-03-15T11:13:29.798Z,5.20
2018-03-15T11:15:56.447Z,5.00
2018-03-15T11:18:23.972Z,5.30
2018-03-15T11:20:51.354Z,5.10
2018-03-15T11:23:18.281Z,4.80
2018-03-15T11:25:44.783Z,4.50
2018-03-15T11:28:11.803Z,4.30
2018-03-15T11:30:38.241Z,4.00
2018-03-15T11:33:05.084Z,4.00
2018-03-15T11:35:31.542Z,4.10
2018-03-15T11:37:58.145Z,3.70
2018-03-15T11:40:25.455Z,4.00
2018-03-15T11:42:52.294Z,4.20
2018-03-15T11:45:19.141Z,4.20
2018-03-15T11:50:14.179Z,4.20
2018-03-15T11:52:40.666Z,4.30
2018-03-15T11:55:07.077Z,4.50
2018-03-15T11:57:33.614Z,4.60
2018-03-15T12:00:00.355Z,4.50
2018-03-15T12:02:26.831Z,4.50
2018-03-15T12:04:53.687Z,4.50
2018-03-15T12:07:20.096Z,4.60
2018-03-15T12:09:46.852Z,4.60
2018-03-15T12:12:14.357Z,4.40
2018-03-15T12:14:41.043Z,4.30
2018-03-15T12:17:08.596Z,4.50
2018-03-15T12:19:35.116Z,4.60
2018-03-15T12:22:01.627Z,4.70
2018-03-15T12:24:28.398Z,3.90
2018-03-15T12:26:54.723Z,4.90
2018-03-15T12:29:21.858Z,4.30
2018-03-15T12:31:48.288Z,4.30
2018-03-15T12:34:14.745Z,4.10
2018-03-15T12:36:41.100Z,4.00
2018-03-15T12:39:07.585Z,3.80
2018-03-15T12:41:33.902Z,3.80
2018-03-15T12:44:00.339Z,3.80
2018-03-15T12:46:26.813Z,3.90
2018-03-15T12:48:53.180Z,4.00
2018-03-15T12:51:19.537Z,3.90
2018-03-15T12:53:46.108Z,3.90
2018-03-15T12:56:12.478Z,3.70
2018-03-15T12:58:39.193Z,3.90
2018-03-15T13:01:12.489Z,3.80
2018-03-15T13:03:39.097Z,3.70
2018-03-15T13:06:05.868Z,3.70
2018-03-15T13:08:33.420Z,3.70
2018-03-15T13:10:59.875Z,3.60
2018-03-15T13:13:27.438Z,3.60
2018-03-15T13:15:54.627Z,3.60
2018-03-15T13:18:21.454Z,3.70
2018-03-15T13:20:48.573Z,3.70
2018-03-15T13:25:43.504Z,3.80
2018-03-15T13:28:10.607Z,3.60
2018-03-15T13:30:37.818Z,3.50
2018-03-15T13:33:04.164Z,3.70
2018-03-15T13:38:00.084Z,3.80
2018-03-15T13:42:54.775Z,3.60
2018-03-15T13:45:21.606Z,3.70
2018-03-15T13:47:48.433Z,3.70
2018-03-15T13:50:14.917Z,3.60
2018-03-15T13:52:42.213Z,3.70
2018-03-15T13:55:08.653Z,3.70
2018-03-15T13:57:36.728Z,3.60
2018-03-15T14:00:04.911Z,3.20
2018-03-15T14:02:32.484Z,3.40
2018-03-15T14:04:59.225Z,3.40
2018-03-15T14:07:25.530Z,3.70
2018-03-15T14:09:52.672Z,3.30
2018-03-15T14:12:19.161Z,3.30
2018-03-15T14:14:45.623Z,3.30
2018-03-15T14:17:12.119Z,3.20
2018-03-15T14:19:39.224Z,3.10
2018-03-15T14:22:06.830Z,3.30
2018-03-15T14:24:33.219Z,3.40
2018-03-15T14:27:00.756Z,3.50
2018-03-15T14:29:27.955Z,3.60
2018-03-15T14:31:55.019Z,3.70
2018-03-15T14:34:22.279Z,3.60
2018-03-15T14:39:18.173Z,3.80
2018-03-15T14:41:45.341Z,3.90
2018-03-15T14:44:12.435Z,3.60
2018-03-15T14:46:38.948Z,3.80
2018-03-15T14:51:33.783Z,3.70
2018-03-15T14:54:00.214Z,3.80
2018-03-15T14:56:26.868Z,3.90
2018-03-15T14:58:54.813Z,4.50
2018-03-15T15:01:21.621Z,4.70
2018-03-15T15:03:48.413Z,4.70
2018-03-15T15:06:15.733Z,4.50
2018-03-15T15:08:42.073Z,4.90
2018-03-15T15:11:09.198Z,5.80
2018-03-15T15:13:36.372Z,6.60
2018-03-15T15:16:03.169Z,7.30
2018-03-15T15:18:30.745Z,7.30
2018-03-15T15:20:57.154Z,7.10
2018-03-15T15:23:23.653Z,7.10
2018-03-15T15:25:51.304Z,7.10
2018-03-15T15:28:18.581Z,6.60
2018-03-15T15:30:44.892Z,7.10
2018-03-15T15:35:39.792Z,6.00
2018-03-15T15:38:06.122Z,5.80
2018-03-15T15:40:32.548Z,5.20
2018-03-15T15:43:00.807Z,4.90
2018-03-15T15:45:27.184Z,4.60
2018-03-15T15:47:53.897Z,5.30
2018-03-15T15:50:20.373Z,5.10
2018-03-15T15:52:46.748Z,5.10
2018-03-15T15:55:13.888Z,5.40
2018-03-15T15:57:40.263Z,5.90
2018-03-15T16:00:06.764Z,6.00
2018-03-15T16:07:31.790Z,6.70
2018-03-15T16:09:58.454Z,6.70
2018-03-15T16:12:25.237Z,6.40
2018-03-15T16:14:52.482Z,5.60
2018-03-15T16:17:18.861Z,4.50
2018-03-15T16:19:45.266Z,3.80
2018-03-15T16:22:12.560Z,3.40
2018-03-15T16:24:39.055Z,3.00
2018-03-15T16:27:05.660Z,2.70
2018-03-15T16:29:33.734Z,2.50
2018-03-15T16:34:28.722Z,2.30
2018-03-15T16:36:55.507Z,2.20
2018-03-15T16:39:22.201Z,2.10
2018-03-15T16:41:49.702Z,1.50
2018-03-15T16:44:16.114Z,1.90
2018-03-15T16:46:42.770Z,1.80
2018-03-15T16:49:09.595Z,1.90
2018-03-15T16:51:36.718Z,1.80
2018-03-15T16:54:03.188Z,1.80
2018-03-15T16:56:29.730Z,1.80
2018-03-15T16:58:56.856Z,1.60
2018-03-15T17:01:23.871Z,1.80
2018-03-15T17:03:50.265Z,1.70
2018-03-15T17:06:17.747Z,1.70
2018-03-15T17:08:44.161Z,1.70
2018-03-15T17:11:11.294Z,1.60
2018-03-15T17:13:39.149Z,1.60
2018-03-15T17:16:06.359Z,1.60
2018-03-15T17:18:33.868Z,1.60
2018-03-15T17:21:00.727Z,1.50
2018-03-15T17:23:27.910Z,1.50
2018-03-15T17:25:55.017Z,1.50
2018-03-15T17:28:22.100Z,1.40
2018-03-15T17:30:49.261Z,1.40
2018-03-15T17:33:15.989Z,1.40
2018-03-15T17:35:42.406Z,1.50
2018-03-15T17:38:09.152Z,1.30
2018-03-15T17:40:36.668Z,1.30
2018-03-15T17:43:03.051Z,1.30
2018-03-15T17:45:30.238Z,1.20
2018-03-15T17:50:25.458Z,1.20
2018-03-15T17:52:52.620Z,1.20
2018-03-15T17:55:19.904Z,1.20
2018-03-15T17:57:46.316Z,1.10
2018-03-15T18:00:14.034Z,1.00
2018-03-15T18:02:40.879Z,1.10
2018-03-15T18:05:08.002Z,1.00
2018-03-15T18:07:35.116Z,1.00
2018-03-15T18:10:01.887Z,1.00
2018-03-15T18:12:28.341Z,1.00
2018-03-15T18:14:55.814Z,0.80
2018-03-15T18:17:22.292Z,0.70
2018-03-15T18:22:16.960Z,0.60
2018-03-15T18:24:44.824Z,0.50
2018-03-15T18:27:12.152Z,0.20
2018-03-15T18:29:38.712Z,0.50
2018-03-15T18:32:06.734Z,0.50
2018-03-15T18:34:33.200Z,0.50
2018-03-15T18:36:59.687Z,0.50
2018-03-15T18:39:26.488Z,0.40
2018-03-15T18:44:20.923Z,0.50
2018-03-15T18:46:47.742Z,0.50
2018-03-15T18:51:44.258Z,0.50
2018-03-15T18:54:11.030Z,0.50
2018-03-15T18:56:37.359Z,0.60
2018-03-15T19:01:31.961Z,0.70
2018-03-15T19:03:58.383Z,0.70
2018-03-15T19:06:24.721Z,0.90
2018-03-15T19:08:51.123Z,1.00
2018-03-15T19:11:18.415Z,1.00
2018-03-15T19:13:44.813Z,0.90
2018-03-15T19:16:11.639Z,0.70
2018-03-15T19:18:39.458Z,1.00
2018-03-15T19:21:06.199Z,1.00
2018-03-15T19:23:32.553Z,1.00
2018-03-15T19:25:59.681Z,1.00
2018-03-15T19:28:26.818Z,1.00
2018-03-15T19:30:54.035Z,1.10
2018-03-15T19:33:21.215Z,0.90
2018-03-15T19:35:47.567Z,1.00
2018-03-15T19:38:15.169Z,1.00
2018-03-15T19:40:42.369Z,1.00
2018-03-15T19:43:08.748Z,1.10
2018-03-15T19:45:35.189Z,1.00
2018-03-15T19:48:02.334Z,1.00
2018-03-15T19:50:28.815Z,1.00
2018-03-15T19:55:23.407Z,0.90
2018-03-15T19:57:49.862Z,1.00
2018-03-15T20:00:16.995Z,1.00
2018-03-15T20:02:43.418Z,0.90
2018-03-15T20:05:10.608Z,1.00
2018-03-15T20:07:37.084Z,1.00
2018-03-15T20:10:03.905Z,1.00
2018-03-15T20:12:31.099Z,1.00
2018-03-15T20:14:57.568Z,0.90
2018-03-15T20:17:24.411Z,1.10
2018-03-15T20:19:50.916Z,0.90
2018-03-15T20:22:24.039Z,1.00
2018-03-15T20:24:50.434Z,0.90
2018-03-15T20:27:16.948Z,1.00
2018-03-15T20:29:44.873Z,0.90
2018-03-15T20:32:11.725Z,0.90
2018-03-15T20:34:38.833Z,1.20
2018-03-15T20:37:05.397Z,1.30
2018-03-15T20:39:37.868Z,0.90
2018-03-15T20:42:04.369Z,0.90
2018-03-15T20:44:30.999Z,0.90
2018-03-15T20:47:03.539Z,0.90
2018-03-15T20:49:29.998Z,0.90
2018-03-15T20:51:57.095Z,0.80
2018-03-15T20:54:23.867Z,0.60
2018-03-15T20:56:51.002Z,0.90
2018-03-15T20:59:17.341Z,1.00
2018-03-15T21:01:43.784Z,0.80
2018-03-15T21:04:10.173Z,0.90
2018-03-15T21:06:36.576Z,0.70
2018-03-15T21:09:03.815Z,0.90
2018-03-15T21:11:31.209Z,0.90
2018-03-15T21:13:57.673Z,0.80
2018-03-15T21:16:25.212Z,1.00
2018-03-15T21:18:51.580Z,0.70
2018-03-15T21:21:18.051Z,0.90
2018-03-15T21:23:44.446Z,0.70
2018-03-15T21:26:11.874Z,0.70
2018-03-15T21:28:38.359Z,1.10
2018-03-15T21:31:05.464Z,0.70
2018-03-15T21:36:00.863Z,0.70
2018-03-15T21:38:27.587Z,0.40
2018-03-15T21:40:54.017Z,0.80
2018-03-15T21:43:20.809Z,0.40
2018-03-15T21:45:48.249Z,0.60
2018-03-15T21:48:14.652Z,0.60
2018-03-15T21:50:41.232Z,0.50
2018-03-15T21:53:08.368Z,0.60
2018-03-15T21:55:35.485Z,0.80
2018-03-15T21:58:01.892Z,0.80
2018-03-15T22:00:28.626Z,0.50
2018-03-15T22:02:56.453Z,0.70
2018-03-15T22:05:24.612Z,0.70
2018-03-15T22:07:51.778Z,0.70
2018-03-15T22:10:18.697Z,0.90
2018-03-15T22:12:46.731Z,0.80
2018-03-15T22:15:13.852Z,0.80
2018-03-15T22:17:40.197Z,0.80
2018-03-15T22:20:08.136Z,0.80
2018-03-15T22:22:34.556Z,0.90
2018-03-15T22:25:01.247Z,0.70
2018-03-15T22:32:23.954Z,0.60
2018-03-15T22:34:50.374Z,0.60
2018-03-15T22:37:16.913Z,0.60
2018-03-15T22:39:43.320Z,0.60
2018-03-15T22:42:09.827Z,0.50
2018-03-15T22:44:36.389Z,0.60
2018-03-15T22:47:03.568Z,0.60
2018-03-15T22:49:30.168Z,0.50
2018-03-15T22:51:56.627Z,0.50
2018-03-15T22:54:23.958Z,0.50
2018-03-15T22:56:51.052Z,0.50
2018-03-15T22:59:17.565Z,0.50
2018-03-15T23:01:43.987Z,0.50
2018-03-15T23:04:11.044Z,0.50
2018-03-15T23:06:38.035Z,0.50
2018-03-15T23:09:04.517Z,0.50
2018-03-15T23:11:30.897Z,0.50
2018-03-15T23:13:57.272Z,0.50
2018-03-15T23:16:23.661Z,0.50
2018-03-15T23:18:50.066Z,0.60
2018-03-15T23:21:17.277Z,0.40
2018-03-15T23:23:43.711Z,0.40
2018-03-15T23:26:10.372Z,0.30
2018-03-15T23:28:36.729Z,0.30
2018-03-15T23:31:03.240Z,0.40
2018-03-15T23:33:30.353Z,0.30
2018-03-15T23:35:56.867Z,0.30
2018-03-15T23:38:23.217Z,0.30
2018-03-15T23:40:49.581Z,0.20
2018-03-15T23:43:16.978Z,0.20
2018-03-15T23:45:43.330Z,0.30
2018-03-15T23:48:10.405Z,-1.70
2018-03-15T23:50:37.489Z,0.20
2018-03-15T23:53:03.887Z,0.20
2018-03-15T23:55:30.317Z,0.20
2018-03-15T23:57:56.706Z,0.10
